Share

Volcano, HI

Volcano Village (KHIVOLCA2) Elev 3796 ft | 19.43 °N, 155.24 °W | Change Station
Active Advisory: Wind Advisory

Current weather conditions updated 4 minutes ago

Rain
Rain
56.8 °F
Feels Like 56.8 °F
N
4.0
Wind Variable Wind from NW
Gusts 14.0 mph
Sunrise 6:00 AM
Sunset 6:40 PM
Moon Waning Gibbous

Tomorrow is forecast to be Warmer than today. Showers possible tomorrow night.

Pressure 30.04 in
Visibility 10.0 miles
Clouds Scattered Clouds 3400 ft
Mostly Cloudy 4300 ft
Dew Point 56 °F
Humidity 99%
Rainfall 0.25 in
Snow Depth Not available.
UV out of 16
Pollen Not available.
PM2.5 Good
Flu Activity Local Activity
METAR PHKO 200553Z 02011KT 10SM SCT034 BKN043 26/16 A3004 RMK AO2 SLP173 60000 T02560161 10289 20244 53007

More Conditions Fewer Conditions

Pressure 30.04 in
Visibility 10.0 miles
Clouds Scattered Clouds 3400 ft
Mostly Cloudy 4300 ft
Dew Point 56 °F
Humidity 99%
Rainfall 0.25 in
Snow Depth Not available.
UV out of 16
Pollen Not available.
PM2.5 Good
Flu Activity Local Activity
METAR PHKO 200553Z 02011KT 10SM SCT034 BKN043 26/16 A3004 RMK AO2 SLP173 60000 T02560161 10289 20244 53007

More Conditions Fewer Conditions

10-Day Weather Forecast

Almanac

Astronomy

Apr. 19, 2014 Rise Set
Actual Time 6:00 AM HST 6:40 PM HST
Civil Twilight 5:37 AM HST 7:02 PM HST
Nautical Twilight 5:11 AM HST 7:29 PM HST
Astronomical Twilight 4:44 AM HST 7:55 PM HST
Moon 11:14 PM HST (4/19) 9:47 AM HST (4/19)
Length of Visible Light 13h 24m
Length of Day
12h 39m
Tomorrow will be 1m 1s longer.
Waning Gibbous, 73% of the Moon is Illuminated
Apr 20
Waning Gibbous
Apr 22
Last Quarter
Apr 29
New
May 6
First Quarter
May 14
Full

Yesterday's Extremes

State Highs State Lows

Community

  • Sunny day at the coast-Cape Arago Lighthouse
    Sunny day at the coast-Cape Arago Lighthouse
  • Cherry Blossoms
    Cherry Blossoms
  • White-Crowned Sparrow
    White-Crowned Sparrow
  • New Day
    New Day
  • Happy Easter!
    Happy Easter!

WunderPhotos

Upload Photos

1,703,085 photos uploaded!

WunderBlogs® & News

Nearby

Air Quality

  Air Quality AQ Index Pollutant
Yesterday Good
PM2.5
Current Good
PM2.5

Snow Depth

Station Depth Elevation
No new snow has been reported.

Coastal Water Temperatures

Place Temperature
No Stations Reporting

Earthquake Activity

City Distance Mag. Time & Date
No recent earthquake activity has been reported nearby.
Minimum magnitude displayed is 2.5.

Nearby Weather Stations

Station Location Temp. Dew Point Humidity Wind Precip. Elev Updated Type
Volcano Village, Volcano, HI 56.8 °F 56 °F 99% NW  at  4.0 mph 0.00 in / hr 3796 ft 8:45 PM HST Normal
Leilani, Pāhoa, HI 65.8 °F 61 °F 85% West  at  0.0 mph - / hr 876 ft 7:22 PM HST Rapid Fire
Kalani, Pahoa, HI 71.0 °F 70 °F 98% WNW  at  5.3 mph - / hr 141 ft 8:35 PM HST Normal

Show More Stations Show Fewer Stations

What do you think?

We're not finished. Please let us know what you like, what you don't like, and what you are still missing.